createdAt,value
2023-04-10T00:00:33.642Z,8.02
2023-04-10T00:02:05.665Z,8.48
2023-04-10T00:03:37.788Z,8.90
2023-04-10T00:05:09.791Z,7.68
2023-04-10T00:06:41.991Z,8.20
2023-04-10T00:08:13.648Z,8.25
2023-04-10T00:09:45.656Z,9.02
2023-04-10T00:11:17.245Z,9.63
2023-04-10T00:12:48.964Z,9.27
2023-04-10T00:14:23.228Z,8.95
2023-04-10T00:15:54.912Z,9.77
2023-04-10T00:17:26.448Z,9.05
2023-04-10T00:19:00.627Z,8.82
2023-04-10T00:20:32.158Z,9.23
2023-04-10T00:22:04.905Z,9.15
2023-04-10T00:23:37.318Z,9.98
2023-04-10T00:25:09.193Z,9.30
2023-04-10T00:26:40.798Z,10.43
2023-04-10T00:28:12.431Z,8.68
2023-04-10T00:29:44.207Z,9.70
2023-04-10T00:31:15.931Z,9.60
2023-04-10T00:32:47.920Z,9.52
2023-04-10T00:34:19.580Z,9.30
2023-04-10T00:35:51.223Z,9.63
2023-04-10T00:37:22.841Z,10.38
2023-04-10T00:38:54.547Z,10.18
2023-04-10T00:40:26.516Z,10.93
2023-04-10T00:41:58.217Z,9.25
2023-04-10T00:43:29.781Z,8.98
2023-04-10T00:45:01.399Z,10.68
2023-04-10T00:46:33.224Z,10.30
2023-04-10T00:48:05.074Z,9.85
2023-04-10T00:49:36.750Z,8.60
2023-04-10T00:51:08.706Z,8.85
2023-04-10T00:52:40.477Z,9.63
2023-04-10T00:54:12.319Z,10.27
2023-04-10T00:55:45.353Z,9.85
2023-04-10T00:57:17.631Z,8.82
2023-04-10T00:58:49.269Z,10.07
2023-04-10T01:00:20.930Z,7.68
2023-04-10T01:01:53.096Z,9.00
2023-04-10T01:03:25.325Z,10.18
2023-04-10T01:04:57.097Z,9.30
2023-04-10T01:06:46.836Z,10.40
2023-04-10T01:08:27.325Z,9.95
2023-04-10T01:10:11.353Z,8.65
2023-04-10T01:12:04.606Z,8.02
2023-04-10T01:13:46.872Z,9.45
2023-04-10T01:15:21.142Z,9.50
2023-04-10T01:17:08.121Z,9.50
2023-04-10T01:18:52.999Z,10.65
2023-04-10T01:20:32.550Z,9.60
2023-04-10T01:22:05.221Z,8.38
2023-04-10T01:23:55.812Z,9.18
2023-04-10T01:25:48.875Z,9.00
2023-04-10T01:28:07.246Z,9.45
2023-04-10T01:29:44.676Z,9.00
2023-04-10T01:31:21.920Z,9.88
2023-04-10T01:32:57.142Z,9.20
2023-04-10T01:34:43.552Z,9.70
2023-04-10T01:36:22.908Z,9.02
2023-04-10T01:37:58.504Z,7.78
2023-04-10T01:39:36.292Z,9.68
2023-04-10T01:41:09.121Z,9.75
2023-04-10T01:43:01.757Z,8.07
2023-04-10T01:44:47.325Z,9.50
2023-04-10T01:46:23.845Z,9.82
2023-04-10T01:47:56.597Z,10.48
2023-04-10T01:49:30.435Z,8.77
2023-04-10T01:51:09.790Z,9.02
2023-04-10T01:52:42.820Z,9.50
2023-04-10T01:54:22.762Z,9.30
2023-04-10T01:55:54.912Z,8.65
2023-04-10T01:57:27.127Z,8.90
2023-04-10T01:59:03.738Z,9.18
2023-04-10T02:00:40.179Z,9.65
2023-04-10T02:02:12.311Z,9.52
2023-04-10T02:03:44.216Z,8.63
2023-04-10T02:05:16.845Z,9.48
2023-04-10T02:07:02.642Z,10.52
2023-04-10T02:08:46.687Z,10.00
2023-04-10T02:10:24.728Z,8.35
2023-04-10T02:12:05.905Z,10.48
2023-04-10T02:13:40.793Z,9.23
2023-04-10T02:15:12.970Z,9.70
2023-04-10T02:16:45.052Z,9.15
2023-04-10T02:18:18.906Z,9.55
2023-04-10T02:19:53.305Z,10.20
2023-04-10T02:21:24.968Z,9.32
2023-04-10T02:22:58.165Z,9.23
2023-04-10T02:24:31.081Z,7.68
2023-04-10T02:26:09.114Z,9.45
2023-04-10T02:27:40.769Z,10.80
2023-04-10T02:29:12.714Z,9.73
2023-04-10T02:30:44.332Z,10.15
2023-04-10T02:32:17.722Z,9.90
2023-04-10T02:33:51.353Z,9.65
2023-04-10T02:35:23.249Z,9.35
2023-04-10T02:36:54.908Z,8.48
2023-04-10T02:38:27.578Z,10.10
2023-04-10T02:39:59.625Z,10.27
2023-04-10T02:41:32.449Z,10.25
2023-04-10T02:43:08.159Z,10.10
2023-04-10T02:44:39.935Z,10.25
2023-04-10T02:46:11.868Z,10.35
2023-04-10T02:47:44.760Z,8.18
2023-04-10T02:49:16.446Z,9.15
2023-04-10T02:50:49.251Z,10.02
2023-04-10T02:52:20.878Z,10.23
2023-04-10T02:53:53.311Z,8.88
2023-04-10T02:55:33.722Z,8.45
2023-04-10T02:57:05.387Z,10.15
2023-04-10T02:58:37.496Z,8.02
2023-04-10T03:00:10.896Z,9.98
2023-04-10T03:02:01.420Z,9.05
2023-04-10T03:03:36.185Z,9.38
2023-04-10T03:05:08.989Z,8.50
2023-04-10T03:06:40.772Z,9.20
2023-04-10T03:08:16.221Z,9.13
2023-04-10T03:09:47.809Z,9.80
2023-04-10T03:11:20.560Z,9.60
2023-04-10T03:12:52.530Z,8.35
2023-04-10T03:14:24.402Z,9.10
2023-04-10T03:15:56.110Z,11.10
2023-04-10T03:17:27.966Z,11.27
2023-04-10T03:19:03.587Z,10.82
2023-04-10T03:20:38.716Z,10.10
2023-04-10T03:22:11.184Z,10.18
2023-04-10T03:23:45.283Z,8.88
2023-04-10T03:25:17.164Z,9.57
2023-04-10T03:26:48.694Z,10.52
2023-04-10T03:28:21.330Z,9.10
2023-04-10T03:29:52.924Z,9.10
2023-04-10T03:31:24.925Z,9.38
2023-04-10T03:32:59.692Z,10.75
2023-04-10T03:34:31.390Z,8.70
2023-04-10T03:36:04.342Z,8.02
2023-04-10T03:37:38.279Z,8.98
2023-04-10T03:39:09.887Z,9.15
2023-04-10T03:40:41.567Z,8.45
2023-04-10T03:42:15.269Z,8.35
2023-04-10T03:43:46.912Z,9.23
2023-04-10T03:45:18.607Z,8.88
2023-04-10T03:46:50.482Z,9.05
2023-04-10T03:48:22.380Z,10.38
2023-04-10T03:49:53.969Z,9.10
2023-04-10T03:51:26.693Z,9.30
2023-04-10T03:52:58.346Z,9.88
2023-04-10T03:54:31.001Z,9.35
2023-04-10T03:56:03.719Z,9.20
2023-04-10T03:57:35.470Z,10.02
2023-04-10T03:59:09.087Z,9.23
2023-04-10T04:00:45.620Z,10.00
2023-04-10T04:02:26.246Z,9.07
2023-04-10T04:04:00.137Z,10.40
2023-04-10T04:05:52.107Z,10.02
2023-04-10T04:07:31.417Z,8.27
2023-04-10T04:09:16.718Z,10.57
2023-04-10T04:10:56.126Z,9.15
2023-04-10T04:12:41.031Z,8.10
2023-04-10T04:14:23.923Z,9.35
2023-04-10T04:16:06.031Z,9.02
2023-04-10T04:17:51.933Z,8.50
2023-04-10T04:19:45.724Z,8.80
2023-04-10T04:21:26.672Z,9.40
2023-04-10T04:23:06.807Z,9.13
2023-04-10T04:24:56.965Z,9.65
2023-04-10T04:26:47.451Z,9.30
2023-04-10T04:28:47.307Z,9.20
2023-04-10T04:30:24.879Z,8.05
2023-04-10T04:32:20.715Z,9.15
2023-04-10T04:34:02.606Z,8.80
2023-04-10T04:35:50.826Z,9.20
2023-04-10T04:37:39.070Z,8.82
2023-04-10T04:39:36.860Z,9.68
2023-04-10T04:41:22.107Z,10.15
2023-04-10T04:43:12.379Z,10.35
2023-04-10T04:45:01.719Z,9.82
2023-04-10T04:46:39.175Z,9.90
2023-04-10T04:48:46.090Z,9.70
2023-04-10T04:50:27.043Z,9.70
2023-04-10T04:52:09.262Z,9.48
2023-04-10T04:53:45.374Z,10.63
2023-04-10T04:55:37.393Z,8.15
2023-04-10T04:57:27.590Z,11.02
2023-04-10T04:59:22.031Z,9.52
2023-04-10T05:01:22.981Z,9.20
2023-04-10T05:03:07.854Z,9.18
2023-04-10T05:05:15.838Z,9.48
2023-04-10T05:06:56.553Z,10.02
2023-04-10T05:08:40.056Z,9.32
2023-04-10T05:10:26.486Z,9.25
2023-04-10T05:12:14.581Z,9.55
2023-04-10T05:13:48.859Z,7.07
2023-04-10T05:15:37.284Z,10.68
2023-04-10T05:17:16.873Z,9.23
2023-04-10T05:18:56.157Z,8.63
2023-04-10T05:20:47.261Z,7.68
2023-04-10T05:22:41.751Z,10.27
2023-04-10T05:24:41.050Z,8.20
2023-04-10T05:26:28.273Z,7.68
2023-04-10T05:28:13.434Z,8.73
2023-04-10T05:30:04.653Z,9.05
2023-04-10T05:32:05.822Z,9.40
2023-04-10T05:33:48.620Z,9.55
2023-04-10T05:35:28.863Z,8.63
2023-04-10T05:38:47.616Z,7.35
2023-04-10T05:40:38.097Z,8.38
2023-04-10T05:42:35.913Z,10.05
2023-04-10T05:44:31.068Z,8.60
2023-04-10T05:46:11.615Z,11.00
2023-04-10T05:47:53.552Z,9.75
2023-04-10T05:49:37.162Z,9.27
2023-04-10T05:51:20.841Z,9.50
2023-04-10T05:53:21.685Z,9.32
2023-04-10T05:55:10.042Z,7.68
2023-04-10T05:56:47.511Z,9.43
2023-04-10T05:58:37.681Z,10.30
2023-04-10T06:00:12.747Z,10.50
2023-04-10T06:02:06.895Z,9.63
2023-04-10T06:03:38.638Z,8.07
2023-04-10T06:05:11.361Z,9.82
2023-04-10T06:06:44.597Z,10.48
2023-04-10T06:08:16.185Z,10.52
2023-04-10T06:09:47.802Z,9.27
2023-04-10T06:11:19.399Z,9.48
2023-04-10T06:12:56.236Z,10.10
2023-04-10T06:14:30.314Z,7.95
2023-04-10T06:16:02.804Z,9.45
2023-04-10T06:17:41.250Z,9.88
2023-04-10T06:19:12.875Z,10.95
2023-04-10T06:20:44.661Z,11.13
2023-04-10T06:22:16.249Z,10.35
2023-04-10T06:23:49.278Z,8.93
2023-04-10T06:25:23.369Z,10.23
2023-04-10T06:26:56.860Z,10.52
2023-04-10T06:28:29.221Z,10.02
2023-04-10T06:30:06.111Z,10.40
2023-04-10T06:31:37.852Z,7.88
2023-04-10T06:33:09.689Z,9.23
2023-04-10T06:34:46.465Z,9.35
2023-04-10T06:36:18.252Z,9.60
2023-04-10T06:37:53.822Z,9.05
2023-04-10T06:39:25.460Z,10.05
2023-04-10T06:40:58.268Z,10.15
2023-04-10T06:42:30.172Z,9.25
2023-04-10T06:44:06.063Z,9.38
2023-04-10T06:45:37.737Z,9.27
2023-04-10T06:47:10.368Z,9.95
2023-04-10T06:48:42.142Z,10.50
2023-04-10T06:50:13.821Z,8.90
2023-04-10T06:51:46.168Z,8.35
2023-04-10T06:53:17.749Z,9.13
2023-04-10T06:54:50.522Z,9.65
2023-04-10T06:56:22.156Z,9.43
2023-04-10T06:57:54.965Z,8.88
2023-04-10T06:59:26.548Z,8.07
2023-04-10T07:00:58.935Z,8.68
2023-04-10T07:02:30.671Z,10.00
2023-04-10T07:04:02.479Z,10.18
2023-04-10T07:05:34.158Z,10.27
2023-04-10T07:07:09.771Z,8.38
2023-04-10T07:08:41.471Z,9.68
2023-04-10T07:10:13.499Z,9.75
2023-04-10T07:11:45.077Z,7.05
2023-04-10T07:13:17.124Z,7.55
2023-04-10T07:14:48.737Z,9.35
2023-04-10T07:16:20.457Z,8.50
2023-04-10T07:17:52.117Z,9.18
2023-04-10T07:19:23.750Z,10.10
2023-04-10T07:20:55.390Z,8.65
2023-04-10T07:22:27.948Z,8.40
2023-04-10T07:23:59.537Z,9.13
2023-04-10T07:25:31.395Z,9.60
2023-04-10T07:27:03.651Z,9.25
2023-04-10T07:28:35.287Z,9.45
2023-04-10T07:30:07.434Z,9.27
2023-04-10T07:31:39.092Z,9.55
2023-04-10T07:33:10.822Z,8.60
2023-04-10T07:34:42.754Z,9.02
2023-04-10T07:36:14.370Z,7.75
2023-04-10T07:37:50.276Z,9.40
2023-04-10T07:39:21.837Z,9.38
2023-04-10T07:40:57.618Z,9.25
2023-04-10T07:42:30.453Z,8.50
2023-04-10T07:44:02.185Z,8.10
2023-04-10T07:45:33.865Z,9.32
2023-04-10T07:47:05.526Z,7.82
2023-04-10T07:48:37.349Z,7.88
2023-04-10T07:50:09.335Z,8.48
2023-04-10T07:51:41.134Z,9.05
2023-04-10T07:53:12.712Z,8.90
2023-04-10T07:54:44.356Z,8.32
2023-04-10T07:56:20.032Z,8.13
2023-04-10T07:57:52.282Z,8.15
2023-04-10T07:59:23.901Z,8.07
2023-04-10T08:00:55.682Z,7.90
2023-04-10T08:02:27.455Z,7.43
2023-04-10T08:03:59.363Z,8.93
2023-04-10T08:05:31.827Z,7.72
2023-04-10T08:07:03.561Z,7.95
2023-04-10T08:08:39.728Z,7.85
2023-04-10T08:10:11.515Z,7.45
2023-04-10T08:11:43.810Z,8.30
2023-04-10T08:13:15.643Z,7.60
2023-04-10T08:14:47.255Z,7.50
2023-04-10T08:16:23.050Z,7.60
2023-04-10T08:17:54.740Z,7.50
2023-04-10T08:19:26.304Z,7.25
2023-04-10T08:20:57.859Z,7.18
2023-04-10T08:22:29.452Z,7.63
2023-04-10T08:24:02.724Z,6.28
2023-04-10T08:25:34.412Z,7.50
2023-04-10T08:27:06.055Z,7.38
2023-04-10T08:28:37.889Z,6.93
2023-04-10T08:30:09.835Z,6.78
2023-04-10T08:31:41.480Z,6.45
2023-04-10T08:33:13.103Z,7.10
2023-04-10T08:34:44.702Z,6.60
2023-04-10T08:36:19.169Z,7.22
2023-04-10T08:39:43.252Z,5.75
2023-04-10T08:41:17.160Z,6.88
2023-04-10T08:42:48.849Z,6.40
2023-04-10T08:44:20.676Z,6.50
2023-04-10T08:45:53.152Z,5.53
2023-04-10T08:47:27.812Z,5.35
2023-04-10T08:49:05.113Z,5.63
2023-04-10T08:50:41.160Z,5.72
2023-04-10T08:52:21.055Z,5.32
2023-04-10T08:53:58.122Z,5.32
2023-04-10T08:55:29.774Z,5.50
2023-04-10T08:57:01.811Z,5.38
2023-04-10T08:58:33.869Z,5.43
2023-04-10T09:00:20.004Z,5.53
2023-04-10T09:01:54.667Z,4.25
2023-04-10T09:03:27.806Z,4.90
2023-04-10T09:05:02.937Z,5.05
2023-04-10T09:06:34.616Z,5.05
2023-04-10T09:08:08.349Z,4.68
2023-04-10T09:09:40.835Z,5.32
2023-04-10T09:11:13.401Z,4.95
2023-04-10T09:12:47.598Z,4.40
2023-04-10T09:14:28.829Z,5.50
2023-04-10T09:16:01.401Z,4.22
2023-04-10T09:17:33.839Z,4.03
2023-04-10T09:19:06.461Z,4.22
2023-04-10T09:20:39.561Z,3.78
2023-04-10T09:22:11.921Z,4.20
2023-04-10T09:23:44.775Z,4.32
2023-04-10T09:25:36.640Z,3.90
2023-04-10T09:27:09.104Z,4.22
2023-04-10T09:29:00.326Z,4.13
2023-04-10T09:30:35.340Z,3.85
2023-04-10T09:32:07.074Z,3.85
2023-04-10T09:34:04.246Z,4.00
2023-04-10T09:35:39.224Z,4.13
2023-04-10T09:37:10.961Z,3.83
2023-04-10T09:38:42.575Z,3.95
2023-04-10T09:40:25.369Z,3.88
2023-04-10T09:41:57.248Z,3.53
2023-04-10T09:43:28.776Z,3.65
2023-04-10T09:45:01.585Z,3.38
2023-04-10T09:46:33.245Z,3.92
2023-04-10T09:48:07.394Z,3.72
2023-04-10T09:49:53.119Z,3.67
2023-04-10T09:51:32.247Z,3.63
2023-04-10T09:53:03.865Z,3.50
2023-04-10T09:54:39.101Z,4.32
2023-04-10T09:56:11.020Z,3.72
2023-04-10T09:57:44.441Z,3.40
2023-04-10T09:59:17.894Z,3.60
2023-04-10T10:00:49.844Z,3.30
2023-04-10T10:02:23.855Z,2.80
2023-04-10T10:03:58.706Z,2.97
2023-04-10T10:05:31.388Z,3.20
2023-04-10T10:07:04.162Z,3.10
2023-04-10T10:08:36.583Z,3.17
2023-04-10T10:10:11.097Z,2.78
2023-04-10T10:11:42.828Z,2.47
2023-04-10T10:13:23.816Z,2.50
2023-04-10T10:15:06.158Z,2.75
2023-04-10T10:16:42.151Z,2.78
2023-04-10T10:18:13.732Z,2.53
2023-04-10T10:20:00.527Z,2.30
2023-04-10T10:21:34.084Z,2.22
2023-04-10T10:23:08.085Z,2.72
2023-04-10T10:24:41.434Z,2.58
2023-04-10T10:26:14.531Z,2.42
2023-04-10T10:27:49.412Z,2.28
2023-04-10T10:29:23.648Z,2.35
2023-04-10T10:30:55.582Z,2.45
2023-04-10T10:32:27.834Z,2.60
2023-04-10T10:34:04.860Z,2.35
2023-04-10T10:35:36.936Z,2.22
2023-04-10T10:37:08.840Z,2.50
2023-04-10T10:38:44.936Z,2.10
2023-04-10T10:40:32.952Z,2.50
2023-04-10T10:42:27.770Z,2.58
2023-04-10T10:44:12.264Z,2.00
2023-04-10T10:45:49.874Z,1.67
2023-04-10T10:47:30.312Z,2.00
2023-04-10T10:49:02.393Z,1.92
2023-04-10T10:50:53.889Z,2.10
2023-04-10T10:52:57.464Z,1.80
2023-04-10T10:54:37.562Z,1.90
2023-04-10T10:56:23.864Z,1.85
2023-04-10T10:57:57.644Z,2.10
2023-04-10T10:59:48.090Z,1.90
2023-04-10T11:01:21.749Z,2.15
2023-04-10T11:03:08.932Z,1.88
2023-04-10T11:04:47.987Z,2.10
2023-04-10T11:06:20.977Z,2.03
2023-04-10T11:07:58.402Z,5.60
2023-04-10T11:09:51.703Z,2.60
2023-04-10T11:11:25.071Z,2.47
2023-04-10T11:13:17.350Z,2.83
2023-04-10T11:15:04.933Z,3.17
2023-04-10T11:16:41.461Z,3.60
2023-04-10T11:18:13.126Z,2.60
2023-04-10T11:19:59.870Z,4.72
2023-04-10T11:21:31.798Z,3.10
2023-04-10T11:23:10.420Z,3.08
2023-04-10T11:24:54.937Z,2.28
2023-04-10T11:26:39.668Z,1.58
2023-04-10T11:28:33.963Z,2.20
2023-04-10T11:31:59.197Z,3.20
2023-04-10T11:33:31.477Z,1.92
2023-04-10T11:35:04.819Z,2.25
2023-04-10T11:36:41.891Z,1.92
2023-04-10T11:38:18.180Z,2.08
2023-04-10T11:40:03.583Z,1.30
2023-04-10T11:41:40.074Z,1.30
2023-04-10T11:43:14.050Z,1.55
2023-04-10T11:44:47.813Z,1.40
2023-04-10T11:46:20.732Z,1.35
2023-04-10T11:47:53.964Z,1.50
2023-04-10T11:49:28.220Z,1.50
2023-04-10T11:51:07.420Z,1.60
2023-04-10T11:52:39.187Z,1.73
2023-04-10T11:54:16.469Z,1.42
2023-04-10T11:55:48.498Z,1.23
2023-04-10T11:57:20.390Z,1.48
2023-04-10T11:58:54.676Z,1.52
2023-04-10T12:00:26.722Z,1.27
2023-04-10T12:02:11.648Z,0.88
2023-04-10T12:03:44.188Z,1.10
2023-04-10T12:05:16.210Z,1.45
2023-04-10T12:06:55.759Z,1.63
2023-04-10T12:08:51.217Z,2.55
2023-04-10T12:10:23.096Z,1.83
2023-04-10T12:12:02.967Z,1.63
2023-04-10T12:13:34.678Z,1.20
2023-04-10T12:15:29.063Z,1.80
2023-04-10T12:18:36.785Z,1.75
2023-04-10T12:20:08.670Z,1.70
2023-04-10T12:21:43.068Z,1.45
2023-04-10T12:23:15.824Z,1.58
2023-04-10T12:24:51.874Z,1.58
2023-04-10T12:26:23.508Z,1.70
2023-04-10T12:27:55.417Z,1.60
2023-04-10T12:29:29.807Z,1.60
2023-04-10T12:31:01.588Z,1.75
2023-04-10T12:32:33.255Z,1.60
2023-04-10T12:34:07.068Z,1.52
2023-04-10T12:35:42.436Z,1.38
2023-04-10T12:37:14.081Z,1.80
2023-04-10T12:38:45.898Z,1.48
2023-04-10T12:40:18.404Z,1.60
2023-04-10T12:41:49.967Z,2.08
2023-04-10T12:43:33.559Z,1.20
2023-04-10T12:45:05.624Z,1.33
2023-04-10T12:46:37.788Z,1.73
2023-04-10T12:48:09.428Z,2.00
2023-04-10T12:49:41.056Z,2.08
2023-04-10T12:51:12.566Z,2.72
2023-04-10T12:52:45.984Z,1.83
2023-04-10T12:54:31.946Z,1.50
2023-04-10T12:56:06.502Z,1.95
2023-04-10T12:57:38.875Z,1.70
2023-04-10T12:59:10.725Z,1.90
2023-04-10T13:00:42.286Z,1.75
2023-04-10T13:02:14.090Z,1.60
2023-04-10T13:03:48.346Z,1.60
2023-04-10T13:05:21.648Z,1.80
2023-04-10T13:06:53.479Z,1.58
2023-04-10T13:08:26.104Z,1.52
2023-04-10T13:09:58.773Z,1.67
2023-04-10T13:11:30.522Z,1.67
2023-04-10T13:13:02.485Z,1.50
2023-04-10T13:14:34.063Z,1.75
2023-04-10T13:16:06.475Z,1.13
2023-04-10T13:17:38.279Z,1.38
2023-04-10T13:19:09.945Z,1.80
2023-04-10T13:20:41.982Z,1.33
2023-04-10T13:22:13.620Z,1.95
2023-04-10T13:23:47.002Z,1.50
2023-04-10T13:25:18.589Z,1.55
2023-04-10T13:26:50.270Z,1.45
2023-04-10T13:28:21.863Z,1.50
2023-04-10T13:29:53.419Z,1.17
2023-04-10T13:31:25.071Z,1.40
2023-04-10T13:32:56.856Z,1.67
2023-04-10T13:34:28.458Z,1.65
2023-04-10T13:36:00.191Z,1.80
2023-04-10T13:37:32.027Z,1.75
2023-04-10T13:39:03.670Z,1.73
2023-04-10T13:40:35.281Z,1.70
2023-04-10T13:42:06.881Z,1.85
2023-04-10T13:43:38.496Z,1.65
2023-04-10T13:45:10.515Z,1.60
2023-04-10T13:46:42.160Z,1.90
2023-04-10T13:48:16.065Z,1.83
2023-04-10T13:49:48.188Z,1.70
2023-04-10T13:51:19.789Z,1.65
2023-04-10T13:52:53.408Z,1.67
2023-04-10T13:54:26.483Z,2.67
2023-04-10T13:55:58.107Z,1.92
2023-04-10T13:57:29.862Z,1.35
2023-04-10T13:59:01.625Z,1.85
2023-04-10T14:00:33.314Z,1.70
2023-04-10T14:02:05.034Z,1.50
2023-04-10T14:03:36.718Z,1.95
2023-04-10T14:05:08.938Z,1.67
2023-04-10T14:06:40.782Z,1.83
2023-04-10T14:08:14.761Z,1.92
2023-04-10T14:09:47.117Z,1.70
2023-04-10T14:11:18.732Z,1.80
2023-04-10T14:12:50.533Z,1.95
2023-04-10T14:14:25.096Z,1.33
2023-04-10T14:15:56.756Z,1.65
2023-04-10T14:17:28.414Z,1.77
2023-04-10T14:19:00.161Z,1.48
2023-04-10T14:20:31.927Z,1.60
2023-04-10T14:22:03.541Z,1.95
2023-04-10T14:23:36.276Z,2.30
2023-04-10T14:25:13.647Z,1.73
2023-04-10T14:26:45.597Z,1.30
2023-04-10T14:28:19.907Z,1.92
2023-04-10T14:29:55.018Z,1.88
2023-04-10T14:31:29.452Z,2.10
2023-04-10T14:33:01.328Z,2.13
2023-04-10T14:34:33.183Z,1.88
2023-04-10T14:36:05.363Z,1.98
2023-04-10T14:37:37.331Z,2.22
2023-04-10T14:39:08.925Z,2.55
2023-04-10T14:40:45.734Z,2.00
2023-04-10T14:42:17.333Z,1.92
2023-04-10T14:43:48.902Z,1.73
2023-04-10T14:45:20.557Z,1.95
2023-04-10T14:46:52.303Z,1.70
2023-04-10T14:48:23.991Z,1.77
2023-04-10T14:49:55.636Z,2.30
2023-04-10T14:51:27.770Z,1.98
2023-04-10T14:53:00.699Z,2.55
2023-04-10T14:54:32.561Z,1.70
2023-04-10T14:56:11.118Z,1.92
2023-04-10T14:57:42.697Z,2.50
2023-04-10T14:59:14.329Z,2.20
2023-04-10T15:00:46.783Z,2.25
2023-04-10T15:02:18.424Z,2.20
2023-04-10T15:03:50.189Z,2.00
2023-04-10T15:05:23.038Z,1.92
2023-04-10T15:06:54.685Z,2.10
2023-04-10T15:08:26.339Z,2.08
2023-04-10T15:09:58.376Z,1.80
2023-04-10T15:11:29.927Z,1.85
2023-04-10T15:13:01.516Z,2.10
2023-04-10T15:14:33.212Z,2.22
2023-04-10T15:16:06.174Z,1.80
2023-04-10T15:17:37.768Z,1.92
2023-04-10T15:19:09.396Z,2.03
2023-04-10T15:20:41.086Z,2.00
2023-04-10T15:22:12.756Z,1.63
2023-04-10T15:23:44.818Z,1.85
2023-04-10T15:25:16.453Z,1.77
2023-04-10T15:26:48.012Z,2.13
2023-04-10T15:28:19.654Z,2.25
2023-04-10T15:29:51.337Z,1.88
2023-04-10T15:31:23.944Z,1.83
2023-04-10T15:32:55.630Z,2.10
2023-04-10T15:34:27.443Z,1.70
2023-04-10T15:35:59.203Z,1.65
2023-04-10T15:37:30.893Z,1.73
2023-04-10T15:39:05.292Z,1.65
2023-04-10T15:40:36.998Z,1.60
2023-04-10T15:42:08.820Z,1.80
2023-04-10T15:43:42.459Z,1.70
2023-04-10T15:45:14.118Z,2.05
2023-04-10T15:46:47.210Z,2.28
2023-04-10T15:48:18.996Z,1.80
2023-04-10T15:49:50.595Z,2.45
2023-04-10T15:51:22.302Z,2.67
2023-04-10T15:52:54.276Z,2.22
2023-04-10T15:54:25.866Z,2.03
2023-04-10T15:55:57.718Z,2.50
2023-04-10T15:57:29.330Z,2.20
2023-04-10T15:59:01.076Z,1.88
2023-04-10T16:00:32.683Z,1.70
2023-04-10T16:02:04.555Z,1.88
2023-04-10T16:03:36.576Z,1.85
2023-04-10T16:05:09.306Z,1.83
2023-04-10T16:06:41.292Z,1.60
2023-04-10T16:08:12.977Z,1.45
2023-04-10T16:09:47.498Z,1.70
2023-04-10T16:11:19.338Z,1.67
2023-04-10T16:12:51.073Z,1.60
2023-04-10T16:14:22.879Z,1.75
2023-04-10T16:15:54.539Z,1.70
2023-04-10T16:17:26.268Z,1.92
2023-04-10T16:18:59.759Z,1.63
2023-04-10T16:20:32.504Z,1.77
2023-04-10T16:22:04.134Z,1.60
2023-04-10T16:23:35.810Z,1.52
2023-04-10T16:25:07.979Z,1.88
2023-04-10T16:26:39.737Z,1.80
2023-04-10T16:28:11.380Z,1.60
2023-04-10T16:29:43.870Z,2.10
2023-04-10T16:31:15.629Z,2.00
2023-04-10T16:32:47.708Z,2.15
2023-04-10T16:34:19.498Z,2.80
2023-04-10T16:35:51.275Z,2.88
2023-04-10T16:37:22.948Z,2.88
2023-04-10T16:38:54.880Z,2.60
2023-04-10T16:40:32.711Z,2.67
2023-04-10T16:42:05.354Z,3.05
2023-04-10T16:43:37.007Z,3.50
2023-04-10T16:45:09.496Z,3.13
2023-04-10T16:46:41.174Z,3.47
2023-04-10T16:48:12.823Z,3.42
2023-04-10T16:49:45.969Z,2.55
2023-04-10T16:51:17.875Z,2.78
2023-04-10T16:52:49.714Z,2.30
2023-04-10T16:54:21.490Z,2.25
2023-04-10T16:56:01.047Z,2.00
2023-04-10T16:57:35.646Z,2.05
2023-04-10T16:59:07.439Z,2.13
2023-04-10T17:00:39.236Z,2.38
2023-04-10T17:02:10.923Z,2.35
2023-04-10T17:03:46.076Z,2.78
2023-04-10T17:05:18.057Z,2.13
2023-04-10T17:06:49.861Z,3.08
2023-04-10T17:08:21.547Z,2.10
2023-04-10T17:09:53.242Z,3.03
2023-04-10T17:11:24.966Z,3.42
2023-04-10T17:12:57.116Z,2.88
2023-04-10T17:14:29.179Z,2.30
2023-04-10T17:16:01.347Z,3.03
2023-04-10T17:17:34.335Z,2.20
2023-04-10T17:19:06.436Z,2.33
2023-04-10T17:20:38.226Z,4.05
2023-04-10T17:22:18.548Z,2.80
2023-04-10T17:23:50.332Z,3.03
2023-04-10T17:25:21.987Z,2.40
2023-04-10T17:26:53.704Z,2.30
2023-04-10T17:28:25.397Z,2.83
2023-04-10T17:29:57.153Z,2.78
2023-04-10T17:31:29.011Z,2.83
2023-04-10T17:33:01.028Z,1.77
2023-04-10T17:34:33.376Z,2.10
2023-04-10T17:36:05.519Z,2.40
2023-04-10T17:37:37.597Z,2.70
2023-04-10T17:39:09.756Z,2.92
2023-04-10T17:40:42.002Z,2.13
2023-04-10T17:42:13.911Z,3.00
2023-04-10T17:43:45.608Z,2.53
2023-04-10T17:45:17.301Z,2.95
2023-04-10T17:46:49.139Z,2.70
2023-04-10T17:48:21.364Z,2.63
2023-04-10T17:49:53.096Z,2.60
2023-04-10T17:51:24.699Z,2.63
2023-04-10T17:52:56.354Z,2.42
2023-04-10T17:54:28.029Z,2.33
2023-04-10T17:56:01.837Z,2.28
2023-04-10T17:57:33.711Z,2.70
2023-04-10T17:59:05.559Z,3.00
2023-04-10T18:00:37.443Z,3.78
2023-04-10T18:02:09.555Z,3.30
2023-04-10T18:03:41.603Z,3.47
2023-04-10T18:05:13.842Z,3.42
2023-04-10T18:06:45.558Z,3.13
2023-04-10T18:08:17.175Z,3.53
2023-04-10T18:09:48.932Z,2.45
2023-04-10T18:11:20.579Z,2.72
2023-04-10T18:12:52.919Z,2.88
2023-04-10T18:14:24.546Z,2.63
2023-04-10T18:15:56.341Z,2.78
2023-04-10T18:17:28.083Z,2.40
2023-04-10T18:18:59.745Z,1.85
2023-04-10T18:20:31.449Z,2.10
2023-04-10T18:22:08.918Z,2.70
2023-04-10T18:23:40.595Z,3.40
2023-04-10T18:25:12.255Z,3.13
2023-04-10T18:26:45.202Z,3.60
2023-04-10T18:28:18.676Z,2.60
2023-04-10T18:29:51.626Z,2.17
2023-04-10T18:31:23.556Z,3.03
2023-04-10T18:32:55.366Z,2.78
2023-04-10T18:34:27.143Z,4.03
2023-04-10T18:35:59.118Z,5.35
2023-04-10T18:37:31.082Z,4.55
2023-04-10T18:39:04.375Z,4.43
2023-04-10T18:40:37.005Z,4.20
2023-04-10T18:42:12.243Z,4.18
2023-04-10T18:43:51.264Z,3.08
2023-04-10T18:45:34.972Z,2.97
2023-04-10T18:47:06.731Z,3.85
2023-04-10T18:48:46.987Z,3.35
2023-04-10T18:50:18.920Z,4.60
2023-04-10T18:51:50.573Z,4.20
2023-04-10T18:53:22.510Z,3.83
2023-04-10T18:54:54.329Z,2.25
2023-04-10T18:56:26.101Z,2.40
2023-04-10T18:57:57.905Z,3.60
2023-04-10T18:59:29.794Z,2.67
2023-04-10T19:01:01.481Z,3.47
2023-04-10T19:02:33.656Z,3.00
2023-04-10T19:04:06.278Z,3.10
2023-04-10T19:05:38.233Z,2.75
2023-04-10T19:07:10.188Z,3.28
2023-04-10T19:08:41.866Z,3.08
2023-04-10T19:10:13.548Z,3.35
2023-04-10T19:11:45.175Z,3.17
2023-04-10T19:13:16.843Z,2.90
2023-04-10T19:14:48.554Z,3.17
2023-04-10T19:16:20.508Z,4.18
2023-04-10T19:17:53.797Z,4.13
2023-04-10T19:19:25.468Z,4.35
2023-04-10T19:20:57.279Z,4.10
2023-04-10T19:22:32.897Z,3.72
2023-04-10T19:24:04.946Z,2.72
2023-04-10T19:25:36.707Z,2.88
2023-04-10T19:27:08.568Z,3.65
2023-04-10T19:28:40.545Z,3.10
2023-04-10T19:30:13.099Z,2.67
2023-04-10T19:31:45.132Z,3.60
2023-04-10T19:33:17.399Z,3.40
2023-04-10T19:34:51.361Z,3.58
2023-04-10T19:36:23.194Z,3.85
2023-04-10T19:37:58.159Z,3.60
2023-04-10T19:39:29.894Z,3.85
2023-04-10T19:41:01.654Z,2.70
2023-04-10T19:42:36.261Z,3.38
2023-04-10T19:44:08.722Z,3.70
2023-04-10T19:45:40.384Z,3.50
2023-04-10T19:47:12.078Z,3.50
2023-04-10T19:48:43.930Z,3.35
2023-04-10T19:50:15.567Z,2.72
2023-04-10T19:51:47.314Z,2.88
2023-04-10T19:53:19.110Z,3.30
2023-04-10T19:54:50.953Z,3.47
2023-04-10T19:56:22.777Z,3.58
2023-04-10T19:57:54.967Z,3.20
2023-04-10T19:59:26.689Z,3.88
2023-04-10T20:01:06.337Z,2.58
2023-04-10T20:02:38.352Z,3.67
2023-04-10T20:04:10.313Z,3.65
2023-04-10T20:05:42.620Z,3.80
2023-04-10T20:07:14.418Z,3.83
2023-04-10T20:08:46.092Z,3.63
2023-04-10T20:10:17.802Z,3.25
2023-04-10T20:11:49.416Z,2.75
2023-04-10T20:13:21.875Z,3.70
2023-04-10T20:14:53.580Z,2.90
2023-04-10T20:16:26.754Z,3.63
2023-04-10T20:17:58.768Z,4.50
2023-04-10T20:19:30.507Z,4.13
2023-04-10T20:21:02.153Z,3.85
2023-04-10T20:22:33.893Z,4.40
2023-04-10T20:24:05.614Z,3.72
2023-04-10T20:25:38.168Z,5.15
2023-04-10T20:27:09.813Z,3.97
2023-04-10T20:28:41.491Z,3.47
2023-04-10T20:30:13.103Z,3.85
2023-04-10T20:31:44.919Z,4.13
2023-04-10T20:33:16.615Z,4.60
2023-04-10T20:34:48.279Z,4.18
2023-04-10T20:36:20.222Z,4.18
2023-04-10T20:37:52.282Z,4.63
2023-04-10T20:39:24.382Z,4.05
2023-04-10T20:40:55.938Z,4.07
2023-04-10T20:42:27.560Z,4.60
2023-04-10T20:43:59.719Z,3.03
2023-04-10T20:45:31.404Z,4.25
2023-04-10T20:47:03.145Z,3.80
2023-04-10T20:48:38.335Z,3.58
2023-04-10T20:50:12.766Z,3.92
2023-04-10T20:51:44.769Z,3.55
2023-04-10T20:53:16.533Z,3.65
2023-04-10T20:54:48.253Z,3.40
2023-04-10T20:56:21.213Z,4.03
2023-04-10T20:57:54.658Z,4.03
2023-04-10T20:59:26.711Z,3.45
2023-04-10T21:00:58.403Z,4.57
2023-04-10T21:02:30.552Z,3.40
2023-04-10T21:04:02.811Z,4.82
2023-04-10T21:05:38.494Z,3.47
2023-04-10T21:07:10.473Z,4.05